Time;durP1;ratioP1;P1;durP2;ratioP2;P2;SDS_P1;SDS_P2;PMS_P1;PMS_P2;Temp;Humidity;BMP_temperature;BMP_pressure;BME280_temperature;BME280_humidity;BME280_pressure;Samples;Min_cycle;Max_cycle;Signal;HPM_P1;HPM_P2
2023/06/18 00:01:43;;;;;;;7.43;4.45;;;;;;;22.05;64.96;100123.56;10212531;28;97562;-87
2023/06/18 00:06:48;;;;;;;7.35;4.43;;;;;;;22.00;64.95;100124.94;10211636;28;98984;-87
2023/06/18 00:11:52;;;;;;;8.73;4.75;;;;;;;22.14;65.01;100109.31;10215557;28;97145;-87
2023/06/18 00:16:55;;;;;;;5.73;3.90;;;;;;;21.99;65.15;100112.50;10211858;28;98618;-87
2023/06/18 00:22:00;;;;;;;6.63;4.57;;;;;;;21.95;65.09;100114.56;10212397;28;96899;-87
2023/06/18 00:27:03;;;;;;;6.55;4.20;;;;;;;21.81;65.38;100104.25;10212995;28;96921;-87
2023/06/18 00:32:08;;;;;;;7.00;4.50;;;;;;;21.72;65.58;100094.34;10212065;28;98532;-87
2023/06/18 00:37:13;;;;;;;7.90;4.40;;;;;;;21.61;66.52;100088.22;10212230;28;98565;-87
2023/06/18 00:42:17;;;;;;;7.65;4.70;;;;;;;21.67;65.91;100090.38;10212352;28;97733;-86
2023/06/18 00:47:20;;;;;;;7.30;4.13;;;;;;;21.56;66.20;100087.78;10208990;28;98413;-88
2023/06/18 00:52:26;;;;;;;6.60;4.53;;;;;;;21.67;65.80;100091.22;10209538;28;97627;-87
2023/06/18 00:57:30;;;;;;;8.60;4.68;;;;;;;21.72;66.25;100096.16;10210127;28;96886;-86
2023/06/18 01:02:34;;;;;;;6.53;4.55;;;;;;;21.73;65.77;100087.16;10209965;28;96879;-86
2023/06/18 01:07:47;;;;;;;9.18;4.88;;;;;;;21.69;65.88;100081.22;10201583;28;98645;-86
2023/06/18 01:12:54;;;;;;;7.18;4.55;;;;;;;21.72;65.61;100088.13;10209767;28;96844;-86
2023/06/18 01:17:59;;;;;;;7.18;4.22;;;;;;;21.53;66.19;100083.56;10208584;28;96993;-87
2023/06/18 01:23:07;;;;;;;8.60;4.03;;;;;;;21.53;66.26;100086.22;10208822;28;96781;-88
2023/06/18 01:28:10;;;;;;;6.13;4.30;;;;;;;21.27;66.82;100088.50;10209448;28;96936;-88
2023/06/18 01:33:14;;;;;;;7.50;4.63;;;;;;;21.55;66.17;100081.59;10212930;28;97158;-88
2023/06/18 01:38:33;;;;;;;8.35;4.65;;;;;;;21.56;66.10;100085.94;10248476;28;97153;-87
2023/06/18 01:43:41;;;;;;;5.97;3.72;;;;;;;21.51;66.24;100080.16;10199475;28;97116;-87
2023/06/18 01:48:47;;;;;;;6.97;3.92;;;;;;;21.44;66.32;100077.16;10213654;28;96690;-87
2023/06/18 01:53:54;;;;;;;6.97;4.25;;;;;;;21.51;66.33;100080.16;10218614;28;96764;-88
2023/06/18 01:58:58;;;;;;;5.85;3.88;;;;;;;21.47;66.68;100084.94;10213430;28;96823;-87
2023/06/18 02:04:01;;;;;;;6.43;4.57;;;;;;;21.56;66.19;100077.91;10212370;28;96797;-87
2023/06/18 02:09:07;;;;;;;6.20;4.30;;;;;;;21.44;66.60;100060.25;10213447;28;96752;-88
2023/06/18 02:14:10;;;;;;;5.97;4.22;;;;;;;21.49;66.31;100052.66;10212896;28;97612;-88
2023/06/18 02:19:14;;;;;;;6.63;4.03;;;;;;;21.57;66.20;100068.91;10211595;28;97277;-88
2023/06/18 02:24:19;;;;;;;7.03;4.33;;;;;;;21.40;66.62;100062.34;10213093;28;96843;-89
2023/06/18 02:29:23;;;;;;;6.78;4.57;;;;;;;21.32;67.04;100067.53;10246574;28;96756;-89
2023/06/18 02:34:27;;;;;;;8.33;4.07;;;;;;;21.29;67.15;100070.44;10203071;28;96987;-89
2023/06/18 02:39:32;;;;;;;8.52;4.55;;;;;;;21.11;67.94;100055.09;10206221;28;96929;-89
2023/06/18 02:44:36;;;;;;;8.15;4.30;;;;;;;21.04;67.92;100064.63;10208120;28;97852;-88
2023/06/18 02:49:40;;;;;;;6.85;4.10;;;;;;;20.90;68.59;100054.25;10205142;28;97182;-88
2023/06/18 02:54:45;;;;;;;6.47;4.03;;;;;;;21.09;68.00;100047.22;10205826;28;98976;-88
2023/06/18 02:59:48;;;;;;;7.85;4.07;;;;;;;21.22;67.31;100044.38;10207670;28;97790;-88
2023/06/18 03:04:52;;;;;;;8.40;4.37;;;;;;;21.17;67.25;100047.41;10205900;28;96853;-89
2023/06/18 03:09:57;;;;;;;6.68;4.30;;;;;;;21.16;67.41;100047.56;10206215;28;98698;-88
2023/06/18 03:15:00;;;;;;;7.18;4.18;;;;;;;20.81;68.83;100047.03;10212536;28;98271;-88
2023/06/18 03:20:06;;;;;;;6.10;4.53;;;;;;;20.98;68.20;100043.78;10215165;28;96852;-88
2023/06/18 03:25:11;;;;;;;7.25;4.70;;;;;;;21.06;67.87;100033.25;10214363;28;97152;-89
2023/06/18 03:30:15;;;;;;;7.75;4.40;;;;;;;21.02;67.96;100042.50;10212319;28;96669;-88
2023/06/18 03:35:19;;;;;;;6.88;4.53;;;;;;;21.16;67.36;100034.19;10214802;28;96954;-86
2023/06/18 03:40:24;;;;;;;8.93;5.13;;;;;;;21.13;67.36;100047.78;10211561;28;97604;-87
2023/06/18 03:45:27;;;;;;;8.20;4.65;;;;;;;20.78;68.21;100045.47;10208907;28;96958;-86
2023/06/18 03:50:30;;;;;;;7.03;4.65;;;;;;;20.77;68.82;100037.56;10214548;28;96772;-87
2023/06/18 03:55:35;;;;;;;8.45;4.65;;;;;;;20.85;68.34;100032.41;10213049;28;97696;-86
2023/06/18 04:00:38;;;;;;;8.40;4.85;;;;;;;20.85;68.21;100041.28;10211607;28;96852;-88
2023/06/18 04:05:42;;;;;;;6.87;4.40;;;;;;;20.62;68.75;100036.19;10212965;28;96977;-81
2023/06/18 04:10:47;;;;;;;8.77;5.07;;;;;;;19.98;70.42;100032.63;10212958;28;97199;-82
2023/06/18 04:15:50;;;;;;;7.53;4.60;;;;;;;20.14;70.40;100027.72;10212448;28;96900;-80
2023/06/18 04:20:54;;;;;;;8.07;4.38;;;;;;;20.33;69.49;100031.47;10211715;28;97458;-80
2023/06/18 04:25:58;;;;;;;9.15;5.30;;;;;;;20.36;69.20;100033.00;10208244;28;97659;-81
2023/06/18 04:31:02;;;;;;;6.60;4.40;;;;;;;20.27;69.18;100039.09;10208499;28;97280;-81
2023/06/18 04:36:06;;;;;;;7.22;4.72;;;;;;;20.04;69.80;100042.81;10213714;28;97248;-81
2023/06/18 04:41:11;;;;;;;7.50;5.07;;;;;;;20.08;69.74;100055.78;10214089;28;96915;-81
2023/06/18 04:46:14;;;;;;;8.13;4.28;;;;;;;20.02;69.89;100052.78;10212402;28;96938;-81
2023/06/18 04:51:18;;;;;;;7.28;4.43;;;;;;;19.71;70.48;100057.06;10212213;28;96869;-81
2023/06/18 04:56:23;;;;;;;7.60;4.85;;;;;;;19.82;70.14;100062.38;10214616;28;96723;-81
2023/06/18 05:01:26;;;;;;;6.40;4.15;;;;;;;19.72;70.60;100060.59;10214854;28;97362;-80
2023/06/18 05:06:30;;;;;;;9.10;4.67;;;;;;;19.77;70.50;100061.91;10192642;28;97409;-81
2023/06/18 05:11:35;;;;;;;7.00;4.65;;;;;;;19.85;70.32;100058.63;10200696;28;97283;-81
2023/06/18 05:16:38;;;;;;;6.78;3.90;;;;;;;19.74;70.69;100070.16;10213527;28;98498;-81
2023/06/18 05:21:42;;;;;;;8.45;4.18;;;;;;;19.95;70.26;100054.25;10212746;28;96784;-81
2023/06/18 05:26:47;;;;;;;7.27;4.03;;;;;;;20.04;69.80;100050.81;10212263;28;96913;-81
2023/06/18 05:31:50;;;;;;;6.43;3.70;;;;;;;20.11;69.53;100052.03;10215563;28;96896;-81
2023/06/18 05:36:53;;;;;;;8.27;4.22;;;;;;;20.15;69.47;100056.97;10223726;28;97596;-80
2023/06/18 05:41:58;;;;;;;7.75;4.53;;;;;;;20.02;70.14;100063.44;10212105;28;96755;-80
2023/06/18 05:47:01;;;;;;;7.13;4.15;;;;;;;19.94;70.53;100053.38;10212504;28;97520;-80
2023/06/18 05:52:05;;;;;;;5.97;4.15;;;;;;;19.99;70.65;100056.56;10241147;28;96555;-80
2023/06/18 05:57:11;;;;;;;7.97;4.73;;;;;;;20.04;70.14;100059.69;10216211;28;96832;-81
2023/06/18 06:02:14;;;;;;;6.93;4.22;;;;;;;20.31;69.78;100060.13;10210631;28;96803;-81
2023/06/18 06:07:35;;;;;;;7.78;4.95;;;;;;;20.49;69.10;100047.06;10188712;28;97105;-81
2023/06/18 06:12:40;;;;;;;6.80;4.07;;;;;;;20.39;69.45;100049.63;10207863;28;97009;-82
2023/06/18 06:17:43;;;;;;;5.53;3.70;;;;;;;20.46;69.55;100057.16;10204430;28;97626;-83
2023/06/18 06:22:46;;;;;;;7.28;4.05;;;;;;;20.42;69.74;100061.91;10208480;28;97650;-83
2023/06/18 06:27:51;;;;;;;7.38;4.40;;;;;;;20.49;69.61;100067.59;10204243;28;98930;-81
2023/06/18 06:32:54;;;;;;;6.22;3.78;;;;;;;20.79;68.73;100065.03;10204699;28;99149;-82
2023/06/18 06:37:58;;;;;;;7.78;4.07;;;;;;;21.08;68.15;100072.28;10218316;28;97693;-80
2023/06/18 06:43:21;;;;;;;6.37;4.47;;;;;;;21.11;68.53;100065.81;10208617;28;96872;-82
2023/06/18 06:48:25;;;;;;;6.57;4.38;;;;;;;21.02;68.63;100069.25;10206691;28;96757;-81
2023/06/18 06:53:28;;;;;;;7.37;4.27;;;;;;;20.99;68.73;100061.50;10203638;28;97873;-82
2023/06/18 06:58:50;;;;;;;7.30;4.50;;;;;;;20.99;69.19;100061.50;10204370;28;96818;-82
2023/06/18 07:09:00;;;;;;;6.53;4.07;;;;;;;21.03;68.70;100069.16;10130812;28;97005;-84
2023/06/18 07:14:04;;;;;;;6.32;4.30;;;;;;;21.02;69.01;100075.47;10140479;28;97795;-83
2023/06/18 07:19:08;;;;;;;7.93;4.50;;;;;;;21.27;68.19;100074.25;10140604;28;96820;-86
2023/06/18 07:24:11;;;;;;;8.65;4.60;;;;;;;21.29;68.04;100077.66;10139370;28;97263;-83
2023/06/18 07:29:16;;;;;;;7.50;4.53;;;;;;;21.54;67.24;100071.03;10136010;28;96842;-80
2023/06/18 07:34:19;;;;;;;5.72;4.07;;;;;;;21.58;67.58;100081.31;10125950;28;99062;-83
2023/06/18 07:39:23;;;;;;;6.83;4.07;;;;;;;21.52;67.36;100085.38;10126443;28;96776;-84
2023/06/18 07:44:28;;;;;;;8.00;4.60;;;;;;;21.50;67.21;100086.50;10128972;28;98904;-82
2023/06/18 07:49:32;;;;;;;6.68;4.50;;;;;;;21.63;66.84;100084.44;10129714;28;99421;-86
2023/06/18 07:54:35;;;;;;;9.10;4.50;;;;;;;21.65;66.12;100084.28;10126536;28;98861;-85
2023/06/18 07:59:58;;;;;;;6.93;4.72;;;;;;;21.70;66.76;100096.31;10142352;28;98786;-85
2023/06/18 08:05:02;;;;;;;6.50;3.88;;;;;;;21.63;66.60;100095.16;10144313;28;98826;-85
2023/06/18 08:10:06;;;;;;;6.75;4.10;;;;;;;21.61;66.92;100098.94;10135163;28;98663;-85
2023/06/18 08:15:12;;;;;;;5.63;3.88;;;;;;;21.81;66.50;100098.03;10141253;28;97430;-85
2023/06/18 08:20:16;;;;;;;8.40;4.60;;;;;;;21.66;66.94;100091.38;10124972;28;99116;-85
2023/06/18 08:25:19;;;;;;;7.70;4.47;;;;;;;22.08;65.62;100095.63;10138679;28;98717;-85
2023/06/18 08:30:24;;;;;;;5.93;4.20;;;;;;;22.38;65.24;100099.09;10146438;28;96933;-84
2023/06/18 08:35:28;;;;;;;6.80;4.47;;;;;;;22.76;63.78;100095.56;10166813;28;97050;-85
2023/06/18 08:40:36;;;;;;;5.45;4.03;;;;;;;22.59;64.56;100098.97;10132542;28;97205;-84
2023/06/18 08:45:41;;;;;;;8.43;5.07;;;;;;;22.58;64.65;100099.94;10135695;28;97395;-84
2023/06/18 08:50:45;;;;;;;7.38;4.43;;;;;;;22.52;64.83;100098.66;10131955;28;98889;-84
2023/06/18 08:56:07;;;;;;;7.95;4.50;;;;;;;22.47;65.11;100094.72;10133821;28;96893;-85
2023/06/18 09:01:13;;;;;;;7.00;4.20;;;;;;;22.35;65.27;100087.78;10162991;28;98400;-84
2023/06/18 09:06:16;;;;;;;8.25;5.05;;;;;;;22.31;65.23;100097.94;10141759;28;96876;-84
2023/06/18 09:11:19;;;;;;;8.10;4.60;;;;;;;22.48;64.68;100094.56;10159617;28;97567;-84
2023/06/18 09:16:42;;;;;;;8.23;5.35;;;;;;;22.74;63.94;100094.00;10140112;28;96824;-85
2023/06/18 09:21:45;;;;;;;8.52;4.80;;;;;;;22.93;63.45;100092.22;10134064;28;96853;-84
2023/06/18 09:26:51;;;;;;;7.73;5.27;;;;;;;22.96;63.41;100096.44;10130241;28;96910;-85
2023/06/18 09:31:56;;;;;;;8.75;5.28;;;;;;;23.04;62.98;100093.91;10134959;28;96934;-85
2023/06/18 09:36:59;;;;;;;6.55;3.78;;;;;;;23.11;62.48;100084.28;10124995;28;98545;-84
2023/06/18 09:42:08;;;;;;;6.93;3.93;;;;;;;23.31;60.85;100078.72;10128138;28;98157;-85
2023/06/18 09:47:30;;;;;;;7.00;3.88;;;;;;;23.72;59.80;100087.38;10133056;28;97574;-84
2023/06/18 09:52:42;;;;;;;5.45;3.22;;;;;;;24.15;58.44;100088.41;10150827;28;98523;-84
2023/06/18 09:57:50;;;;;;;5.25;3.40;;;;;;;24.51;57.62;100084.81;10148270;28;96840;-85
2023/06/18 10:03:04;;;;;;;5.22;3.10;;;;;;;24.55;57.43;100082.69;10152722;28;96865;-84
2023/06/18 10:08:09;;;;;;;5.88;2.90;;;;;;;24.47;57.60;100083.44;10155902;28;98955;-83
2023/06/18 10:13:13;;;;;;;5.32;2.80;;;;;;;24.41;57.89;100078.66;10142349;28;98352;-85
2023/06/18 10:18:23;;;;;;;4.13;2.60;;;;;;;24.88;57.42;100083.81;10137079;28;97066;-85
2023/06/18 10:23:28;;;;;;;4.18;2.80;;;;;;;24.99;57.11;100081.75;10141845;28;96834;-83
2023/06/18 10:28:31;;;;;;;3.72;2.53;;;;;;;25.19;56.78;100087.78;10160383;28;97033;-85
2023/06/18 10:33:37;;;;;;;3.53;2.25;;;;;;;25.27;56.31;100083.31;10131416;28;97016;-83
2023/06/18 10:38:40;;;;;;;3.85;2.67;;;;;;;24.91;56.97;100076.28;10137918;28;96840;-85
2023/06/18 10:44:01;;;;;;;3.75;2.35;;;;;;;25.15;55.96;100078.31;10146087;28;96868;-83
2023/06/18 10:49:23;;;;;;;3.50;2.45;;;;;;;24.99;56.42;100079.06;10131228;28;98354;-84
2023/06/18 10:54:30;;;;;;;4.03;2.20;;;;;;;25.09;56.27;100063.63;10136164;28;96906;-84
2023/06/18 10:59:35;;;;;;;3.50;2.28;;;;;;;25.45;55.81;100073.31;10134617;28;96999;-83
2023/06/18 11:04:57;;;;;;;3.63;2.20;;;;;;;25.71;55.49;100082.25;10140486;28;96827;-83
2023/06/18 11:10:05;;;;;;;3.05;2.30;;;;;;;25.85;55.40;100078.94;10145144;28;98407;-82
2023/06/18 11:15:18;;;;;;;4.65;2.63;;;;;;;26.12;54.34;100077.88;10153049;28;98424;-85
2023/06/18 11:20:24;;;;;;;3.47;2.40;;;;;;;26.83;53.51;100072.81;10122500;28;96961;-76
2023/06/18 11:25:28;;;;;;;3.40;2.65;;;;;;;27.26;52.44;100087.84;10135541;28;97631;-84
2023/06/18 11:30:33;;;;;;;2.85;2.13;;;;;;;26.86;52.90;100081.41;10129853;28;98758;-81
2023/06/18 11:35:38;;;;;;;3.67;2.58;;;;;;;27.09;52.72;100070.81;10126697;28;97047;-82
2023/06/18 11:40:49;;;;;;;4.20;2.58;;;;;;;27.60;52.07;100058.69;10137114;28;97169;-82
2023/06/18 11:45:54;;;;;;;3.83;2.70;;;;;;;27.77;51.24;100054.97;10137340;28;96811;-82
2023/06/18 11:50:59;;;;;;;5.28;2.70;;;;;;;28.20;50.75;100053.56;10136429;28;96769;-82
2023/06/18 11:56:02;;;;;;;4.35;2.83;;;;;;;28.02;50.54;100049.28;10136562;28;96783;-82
2023/06/18 12:01:05;;;;;;;6.13;3.28;;;;;;;27.98;50.06;100038.97;10135447;28;96782;-82
2023/06/18 12:06:15;;;;;;;4.45;2.88;;;;;;;27.83;49.85;100028.06;10136328;28;96868;-82
2023/06/18 12:11:29;;;;;;;5.15;2.60;;;;;;;27.76;49.25;100018.13;10135871;28;97227;-82
2023/06/18 12:16:35;;;;;;;3.78;2.53;;;;;;;28.31;47.81;100023.44;10135811;28;96728;-82
2023/06/18 12:21:40;;;;;;;4.30;2.60;;;;;;;28.42;47.43;100015.75;10135680;28;96923;-82
2023/06/18 12:26:44;;;;;;;3.40;2.45;;;;;;;28.27;47.66;100012.09;10135360;28;96950;-82
2023/06/18 12:32:02;;;;;;;3.58;2.63;;;;;;;28.19;47.54;100009.44;10135181;28;96617;-82
2023/06/18 12:37:07;;;;;;;3.40;2.47;;;;;;;28.52;47.96;100005.50;10136130;28;96876;-82
2023/06/18 12:42:12;;;;;;;4.05;2.50;;;;;;;29.15;46.97;100003.28;10135391;28;96692;-82
2023/06/18 12:47:18;;;;;;;3.58;2.40;;;;;;;29.38;46.71;99995.03;10173782;28;96596;-82
2023/06/18 12:52:26;;;;;;;3.30;2.13;;;;;;;29.52;46.36;99988.81;10173700;28;96837;-82
2023/06/18 12:57:30;;;;;;;4.10;2.42;;;;;;;29.12;47.30;99981.94;10141687;28;96852;-82
2023/06/18 13:02:52;;;;;;;3.47;2.50;;;;;;;29.28;46.80;99982.81;10133358;28;96760;-82
2023/06/18 13:07:57;;;;;;;3.13;2.03;;;;;;;28.72;47.16;99985.03;10133355;28;96893;-82
2023/06/18 13:13:01;;;;;;;3.42;2.20;;;;;;;29.10;46.39;99978.56;10134699;28;96732;-82
2023/06/18 13:18:04;;;;;;;;;;;;;;;28.30;46.38;99979.28;10134206;28;96982;-82
2023/06/18 13:23:10;;;;;;;3.20;2.30;;;;;;;28.22;47.39;99973.88;10133964;28;96799;-82
2023/06/18 13:28:14;;;;;;;4.20;2.30;;;;;;;27.46;47.98;99956.72;10134364;28;97297;-82
2023/06/18 13:33:18;;;;;;;4.53;2.55;;;;;;;27.52;48.22;99959.56;10132891;28;96781;-82
2023/06/18 13:38:23;;;;;;;3.95;2.28;;;;;;;27.74;47.65;99949.84;10133175;28;96720;-82
2023/06/18 13:43:26;;;;;;;2.92;2.20;;;;;;;27.72;47.25;99941.06;10131924;28;96862;-82
2023/06/18 13:48:30;;;;;;;;;;;;;;;27.81;45.78;99943.56;10133976;28;97508;-82
2023/06/18 13:53:34;;;;;;;3.38;2.35;;;;;;;28.57;46.21;99939.97;10132521;28;96681;-82
2023/06/18 13:58:38;;;;;;;3.28;2.10;;;;;;;28.47;46.52;99933.97;10132824;28;96782;-82
2023/06/18 14:03:41;;;;;;;4.00;2.55;;;;;;;27.68;48.24;99912.72;10132476;28;96796;-81
2023/06/18 14:08:46;;;;;;;;;;;;;;;27.71;46.31;99931.28;10133055;28;97029;-81
2023/06/18 14:13:49;;;;;;;3.63;2.63;;;;;;;27.74;47.52;99937.16;10132511;28;96673;-82
2023/06/18 14:18:53;;;;;;;;;;;;;;;28.03;45.88;99931.91;10133741;28;96762;-82
2023/06/18 14:23:58;;;;;;;4.73;2.80;;;;;;;27.61;47.43;99938.72;10132264;28;96985;-82
2023/06/18 14:29:01;;;;;;;4.40;3.00;;;;;;;27.81;47.94;99923.78;10131970;28;96674;-82
2023/06/18 14:34:05;;;;;;;4.10;3.03;;;;;;;27.58;48.36;99945.31;10130482;28;96919;-82
2023/06/18 14:39:13;;;;;;;5.15;3.10;;;;;;;27.61;49.02;99941.44;10132106;28;96830;-82
2023/06/18 14:44:16;;;;;;;4.25;3.13;;;;;;;27.56;49.17;99930.31;10131751;28;96761;-82
2023/06/18 14:49:20;;;;;;;4.63;3.08;;;;;;;27.22;49.94;99941.41;10131552;28;96611;-82
2023/06/18 14:54:24;;;;;;;5.80;3.45;;;;;;;26.93;49.46;99936.59;10131609;28;96802;-82
2023/06/18 14:59:28;;;;;;;5.18;3.35;;;;;;;27.22;49.09;99908.16;10130998;28;96681;-82
2023/06/18 15:04:31;;;;;;;5.63;3.58;;;;;;;27.34;48.97;99913.00;10130108;28;97354;-82
2023/06/18 15:09:36;;;;;;;;;;;;;;;27.77;49.12;99901.66;10134822;28;96708;-82
2023/06/18 15:14:40;;;;;;;5.88;3.20;;;;;;;27.70;48.47;99908.78;10138079;28;97048;-82
2023/06/18 15:19:44;;;;;;;4.82;3.28;;;;;;;27.59;49.18;99902.91;10137599;28;97002;-82
2023/06/18 15:24:49;;;;;;;6.35;3.58;;;;;;;27.26;49.90;99887.88;10136082;28;96694;-82
2023/06/18 15:29:52;;;;;;;5.20;3.47;;;;;;;27.16;50.47;99898.06;10137846;28;96732;-81
2023/06/18 15:34:56;;;;;;;4.72;3.40;;;;;;;26.90;51.91;99904.50;10136622;28;96955;-82
2023/06/18 15:40:00;;;;;;;5.18;3.35;;;;;;;27.08;51.88;99915.13;10137271;28;97166;-82
2023/06/18 15:45:04;;;;;;;5.40;3.65;;;;;;;27.28;51.18;99911.00;10137365;28;96648;-81
2023/06/18 15:50:08;;;;;;;5.50;3.55;;;;;;;26.89;52.08;99915.47;10136508;28;97339;-82
2023/06/18 15:55:31;;;;;;;5.75;3.72;;;;;;;26.86;52.69;99916.69;10130285;28;96598;-81
2023/06/18 16:00:34;;;;;;;6.22;3.35;;;;;;;27.00;52.47;99921.38;10137239;28;96815;-82
2023/06/18 16:05:38;;;;;;;;;;;;;;;26.83;52.47;99919.75;10135922;28;96654;-81
2023/06/18 16:10:43;;;;;;;6.78;3.60;;;;;;;26.63;53.32;99921.09;10136128;28;96673;-82
2023/06/18 16:15:46;;;;;;;4.07;2.88;;;;;;;26.55;52.06;99926.53;10134792;28;96647;-81
2023/06/18 16:20:50;;;;;;;6.10;3.50;;;;;;;26.33;53.69;99918.22;10135401;28;96815;-82
2023/06/18 16:25:55;;;;;;;6.10;3.58;;;;;;;26.47;52.92;99896.81;10134995;28;96805;-82
2023/06/18 16:30:58;;;;;;;6.13;3.58;;;;;;;26.31;53.56;99891.44;10135497;28;96620;-82
2023/06/18 16:36:01;;;;;;;5.03;3.50;;;;;;;26.13;54.03;99896.13;10145734;28;97116;-82
2023/06/18 16:41:06;;;;;;;5.60;3.57;;;;;;;26.08;54.38;99900.34;10174874;28;96664;-82
2023/06/18 16:46:26;;;;;;;5.45;3.20;;;;;;;25.91;54.82;99910.28;10171654;28;96819;-82
2023/06/18 16:51:30;;;;;;;4.18;3.05;;;;;;;25.76;55.59;99914.66;10174755;28;96618;-82
2023/06/18 16:56:35;;;;;;;6.35;3.17;;;;;;;25.70;55.83;99920.69;10134263;28;96691;-82
2023/06/18 17:01:38;;;;;;;4.47;3.42;;;;;;;25.52;55.64;99914.53;10134670;28;96672;-82
2023/06/18 17:06:41;;;;;;;5.80;3.50;;;;;;;25.66;55.61;99908.50;10133091;28;96958;-82
2023/06/18 17:11:46;;;;;;;4.82;3.42;;;;;;;25.55;55.40;99898.88;10134737;28;97305;-82
2023/06/18 17:16:50;;;;;;;4.45;2.97;;;;;;;25.38;55.97;99894.44;10134032;28;96835;-81
2023/06/18 17:21:53;;;;;;;6.03;3.93;;;;;;;25.23;56.31;99893.38;10134068;28;96686;-81
2023/06/18 17:27:16;;;;;;;4.90;3.40;;;;;;;24.97;56.16;99903.31;10134182;28;97199;-82
2023/06/18 17:32:20;;;;;;;3.43;2.53;;;;;;;25.17;56.48;99902.13;10133176;28;96814;-82
2023/06/18 17:37:24;;;;;;;5.72;3.40;;;;;;;24.99;56.76;99920.19;10133057;28;96732;-82
2023/06/18 17:42:29;;;;;;;;;;;;;;;24.62;57.71;99931.19;10135115;28;96668;-82
2023/06/18 17:47:32;;;;;;;4.53;3.05;;;;;;;24.47;57.36;99940.00;10133212;28;96820;-82
2023/06/18 17:52:36;;;;;;;4.22;3.10;;;;;;;24.49;57.55;99941.53;10132997;28;96697;-82
2023/06/18 17:57:42;;;;;;;3.63;2.60;;;;;;;24.46;57.49;99949.91;10131893;28;96732;-82
2023/06/18 18:02:45;;;;;;;6.15;3.40;;;;;;;24.33;57.92;99951.31;10133275;28;96647;-82
2023/06/18 18:07:48;;;;;;;5.80;3.33;;;;;;;24.30;58.00;99932.78;10131919;28;96905;-82
2023/06/18 18:12:53;;;;;;;5.80;3.13;;;;;;;24.36;58.10;99934.88;10132480;28;96527;-82
2023/06/18 18:17:56;;;;;;;3.88;2.80;;;;;;;24.48;57.82;99937.13;10132558;28;96734;-81
2023/06/18 18:23:00;;;;;;;5.17;3.13;;;;;;;24.56;57.68;99944.44;10132126;28;96924;-82
2023/06/18 18:28:05;;;;;;;4.83;2.90;;;;;;;24.49;58.18;99952.31;10131905;28;96954;-82
2023/06/18 18:33:08;;;;;;;4.97;3.25;;;;;;;24.49;58.41;99951.44;10132583;28;96732;-82
2023/06/18 18:38:12;;;;;;;4.50;3.10;;;;;;;24.34;58.73;99945.75;10132119;28;97010;-82
2023/06/18 18:43:18;;;;;;;3.95;3.13;;;;;;;24.13;59.33;99939.00;10130720;28;96723;-81
2023/06/18 18:48:21;;;;;;;6.28;3.60;;;;;;;24.25;59.13;99935.06;10130389;28;96764;-82
2023/06/18 18:53:25;;;;;;;4.60;3.00;;;;;;;24.13;59.36;99942.53;10154789;28;96658;-82
2023/06/18 18:58:30;;;;;;;5.60;3.88;;;;;;;24.08;59.48;99933.25;10170737;28;96701;-81
2023/06/18 19:03:33;;;;;;;4.97;3.13;;;;;;;24.11;59.36;99941.84;10170283;28;96850;-82
2023/06/18 19:08:37;;;;;;;3.63;2.47;;;;;;;24.04;59.41;99940.78;10140542;28;98335;-82
2023/06/18 19:13:42;;;;;;;4.90;3.20;;;;;;;24.03;59.44;99936.38;10130866;28;96879;-82
2023/06/18 19:18:45;;;;;;;4.72;3.03;;;;;;;23.88;59.67;99935.22;10130676;28;96780;-82
2023/06/18 19:23:48;;;;;;;4.83;3.30;;;;;;;23.99;59.45;99939.53;10131317;28;96769;-82
2023/06/18 19:28:53;;;;;;;5.35;2.78;;;;;;;23.91;59.24;99942.97;10130766;28;96649;-82
2023/06/18 19:33:57;;;;;;;5.07;2.95;;;;;;;23.57;59.91;99941.94;10138839;22;96957;-82
2023/06/18 19:39:01;;;;;;;4.40;3.17;;;;;;;23.50;60.04;99946.19;10206862;28;96909;-81
2023/06/18 19:44:06;;;;;;;4.75;2.97;;;;;;;23.51;59.82;99940.66;10188212;28;96589;-81
2023/06/18 19:49:09;;;;;;;5.57;3.10;;;;;;;23.38;60.47;99948.22;10169644;28;96800;-81
2023/06/18 19:54:12;;;;;;;4.00;3.07;;;;;;;23.36;60.31;99949.38;10169981;28;96915;-82
2023/06/18 19:59:17;;;;;;;5.33;3.40;;;;;;;23.34;60.45;99948.66;10177015;28;96726;-82
2023/06/18 20:04:20;;;;;;;4.95;3.05;;;;;;;23.31;60.66;99949.81;10175818;28;96851;-82
2023/06/18 20:09:24;;;;;;;4.27;2.90;;;;;;;23.21;60.54;99942.81;10175988;28;96622;-82
2023/06/18 20:14:29;;;;;;;4.53;3.07;;;;;;;23.21;60.79;99934.75;10176614;28;98504;-82
2023/06/18 20:19:32;;;;;;;4.82;2.90;;;;;;;23.19;60.69;99939.41;10176281;28;96876;-82
2023/06/18 20:24:36;;;;;;;4.80;3.10;;;;;;;23.20;60.67;99941.13;10175365;28;96613;-82
2023/06/18 20:29:41;;;;;;;4.68;3.00;;;;;;;23.27;60.88;99947.56;10174469;28;96593;-82
2023/06/18 20:34:45;;;;;;;5.43;3.17;;;;;;;23.21;61.06;99948.16;10174943;28;96567;-82
2023/06/18 20:39:48;;;;;;;4.37;2.80;;;;;;;23.23;61.26;99948.88;10175405;28;96843;-82
2023/06/18 20:44:53;;;;;;;4.63;3.17;;;;;;;23.07;61.74;99940.59;10174938;28;96705;-81
2023/06/18 20:49:56;;;;;;;5.28;3.72;;;;;;;22.94;62.22;99956.19;10175252;28;96769;-82
2023/06/18 20:55:00;;;;;;;4.57;3.17;;;;;;;22.79;62.60;99971.91;10174709;28;96966;-82
2023/06/18 21:00:06;;;;;;;5.40;3.17;;;;;;;22.70;63.06;99970.03;10174246;28;96849;-82
2023/06/18 21:05:10;;;;;;;5.28;3.20;;;;;;;22.74;62.85;99970.59;10174595;28;96678;-82
2023/06/18 21:10:14;;;;;;;5.00;3.38;;;;;;;22.74;63.25;99981.31;10174124;28;96597;-82
2023/06/18 21:15:19;;;;;;;5.20;3.10;;;;;;;22.79;63.20;99976.41;10173731;28;97089;-82
2023/06/18 21:20:22;;;;;;;4.28;3.17;;;;;;;22.80;63.03;99967.38;10173125;28;96644;-82
2023/06/18 21:25:26;;;;;;;4.05;3.10;;;;;;;22.58;63.64;99966.69;10174080;28;96595;-81
2023/06/18 21:30:31;;;;;;;5.03;3.10;;;;;;;22.38;64.28;99983.78;10173978;28;96878;-82
2023/06/18 21:35:35;;;;;;;4.22;2.95;;;;;;;22.39;64.45;99995.34;10172542;28;96891;-82
2023/06/18 21:40:38;;;;;;;5.25;3.38;;;;;;;22.28;64.50;99988.28;10173779;28;96800;-82
2023/06/18 21:45:43;;;;;;;6.63;3.73;;;;;;;22.28;64.32;99993.63;10173086;28;96829;-82
2023/06/18 21:50:47;;;;;;;5.63;3.30;;;;;;;22.33;64.25;99996.75;10173055;28;96821;-82
2023/06/18 21:55:51;;;;;;;4.95;2.97;;;;;;;22.26;64.61;99995.63;10173504;28;97321;-82
2023/06/18 22:00:55;;;;;;;;;;;;;;;22.16;65.58;99994.75;10173611;28;96554;-82
2023/06/18 22:05:59;;;;;;;5.45;3.17;;;;;;;21.81;66.17;99990.88;10170892;28;96758;-82
2023/06/18 22:11:02;;;;;;;5.45;3.22;;;;;;;21.77;66.43;99993.00;10171234;28;96712;-82
2023/06/18 22:16:07;;;;;;;5.63;3.63;;;;;;;21.94;66.22;99984.28;10185209;28;96617;-81
2023/06/18 22:21:10;;;;;;;6.65;3.33;;;;;;;22.05;65.45;99984.19;10210620;28;96720;-81
2023/06/18 22:26:14;;;;;;;5.20;3.30;;;;;;;22.22;65.58;99980.81;10211437;28;96684;-81
2023/06/18 22:31:19;;;;;;;4.67;3.23;;;;;;;22.14;65.74;99982.50;10211839;28;96694;-81
2023/06/18 22:36:22;;;;;;;5.07;3.20;;;;;;;22.12;65.87;99998.75;10178289;28;96748;-81
2023/06/18 22:41:25;;;;;;;6.38;3.58;;;;;;;22.15;65.74;99997.59;10171877;28;96997;-81
2023/06/18 22:46:30;;;;;;;6.25;3.83;;;;;;;22.18;65.81;99990.13;10171740;28;96759;-81
2023/06/18 22:51:34;;;;;;;5.40;2.97;;;;;;;22.09;65.88;99984.78;10171677;28;96864;-81
2023/06/18 22:56:38;;;;;;;;;;;;;;;22.08;66.82;99993.78;10171261;28;96672;-81
2023/06/18 23:01:44;;;;;;;4.40;3.38;;;;;;;22.02;66.44;99987.13;10169978;28;96950;-81
2023/06/18 23:06:47;;;;;;;5.22;3.63;;;;;;;21.98;66.54;99991.09;10171099;28;97311;-81
2023/06/18 23:11:52;;;;;;;4.53;3.30;;;;;;;21.94;66.44;100003.03;10170687;28;96809;-81
2023/06/18 23:16:57;;;;;;;;;;;;;;;21.81;66.99;100007.81;10171191;28;97734;-81
2023/06/18 23:22:05;;;;;;;4.47;2.90;;;;;;;21.80;67.01;99990.03;10170688;28;96794;-81
2023/06/18 23:27:11;;;;;;;5.10;3.40;;;;;;;21.91;66.58;99997.97;10170505;28;96662;-81
2023/06/18 23:32:17;;;;;;;6.40;3.70;;;;;;;21.98;66.52;99996.47;10174503;28;96708;-81
2023/06/18 23:37:23;;;;;;;5.47;3.30;;;;;;;22.00;66.62;99997.16;10176875;28;96756;-81
2023/06/18 23:42:26;;;;;;;5.28;3.50;;;;;;;21.93;66.74;99989.78;10177563;28;96990;-81